Latest Weather Observations for Lucas Heights

IDN60801

Issued at 11:02 pm EST Sunday 29 May 2016 (issued every 30 minutes, with the page automatically refreshed every 10 minutes)

About weather observations | Map of weather stations | Latest weather observations for NSW | Other Formats
Station Details ID: 066023 Name: LUCAS HEIGHTS AWS Lat: -34.05 Lon: 150.98 Height: 140.0 m
Data from the previous 72 hours. | See also: Recent months for locations in New South Wales
Date/Time
EST
Temp
°C
App
Temp
°C
Dew
Point
Rel
Hum
%
Delta-T
°C
Wind Press
QNH
hPa
Press
MSL
hPa
Rain
since 9 am
mm
Dir
 
Spd
km/h
Gust
km/h
Spd
kts
Gust
kts
29/10:45pm 8.7 3.5 2.5 65 2.6 SW 19 26 10 14 1021.0 - 0.0
29/10:30pm 8.9 2.8 2.6 64 2.7 WSW 24 30 13 16 1021.0 - 0.0
29/10:15pm 8.9 3.2 2.6 64 2.7 WSW 22 30 12 16 1021.1 - 0.0
29/10:00pm 9.2 4.0 2.7 64 2.8 SW 19 24 10 13 1021.1 - 0.0
29/09:45pm 9.4 4.3 2.8 63 2.8 SW 19 24 10 13 1020.9 - 0.0
29/09:30pm 9.6 4.4 2.7 62 3.0 SW 19 24 10 13 1020.8 - 0.0
29/09:15pm 9.9 4.2 2.8 61 3.1 SW 22 28 12 15 1020.7 - 0.0
29/09:00pm 9.9 4.2 3.1 62 3.0 SW 22 28 12 15 1020.7 - 0.0
29/08:45pm 9.5 5.4 2.3 61 3.1 SW 13 20 7 11 1020.7 - 0.0
29/08:30pm 10.4 4.7 2.7 59 3.3 SW 22 28 12 15 1020.3 - 0.0
29/08:15pm 10.4 5.2 2.5 58 3.4 SW 19 22 10 12 1020.3 - 0.0
29/08:00pm 10.7 5.5 2.3 56 3.6 SW 19 24 10 13 1020.1 - 0.0
29/07:45pm 11.1 4.9 2.4 55 3.8 SW 24 28 13 15 1019.8 - 0.0
29/07:30pm 11.1 5.6 2.1 54 3.9 SW 20 24 11 13 1019.5 - 0.0
29/07:15pm 11.4 6.1 1.9 52 4.1 SW 19 26 10 14 1019.5 - 0.0
29/07:00pm 11.8 6.5 1.8 50 4.3 SW 19 22 10 12 1019.3 - 0.0
29/06:45pm 12.0 7.1 1.7 49 4.4 SW 17 22 9 12 1019.0 - 0.0
29/06:30pm 12.3 6.9 1.5 47 4.6 SW 19 22 10 12 1018.8 - 0.0
29/06:15pm 12.8 7.4 1.4 46 4.9 SW 19 22 10 12 1018.6 - 0.0
29/06:00pm 13.2 7.6 1.4 44 5.1 SW 20 22 11 12 1018.4 - 0.0
29/05:45pm 13.4 7.9 1.6 44 5.1 SW 20 24 11 13 1018.3 - 0.0
29/05:30pm 13.5 8.6 1.8 45 5.1 SW 17 20 9 11 1018.1 - 0.0
29/05:15pm 14.1 9.2 1.9 43 5.4 SW 17 19 9 10 1017.8 - 0.0
29/05:00pm 14.5 9.6 1.8 42 5.6 SW 17 19 9 10 1017.6 - 0.0
29/04:45pm 15.0 10.4 1.7 40 5.9 WSW 15 19 8 10 1017.4 - 0.0
29/04:30pm 15.9 10.9 1.5 37 6.4 WSW 17 22 9 12 1017.1 - 0.0
29/04:15pm 16.4 11.4 1.5 36 6.6 WSW 17 22 9 12 1016.9 - 0.0
29/04:00pm 16.8 12.2 1.8 36 6.7 WSW 15 20 8 11 1016.7 - 0.0
29/03:45pm 17.1 12.9 1.9 36 6.9 WSW 13 22 7 12 1016.5 - 0.0
29/03:30pm 17.3 13.6 2.1 36 6.9 W 11 20 6 11 1016.4 - 0.0
29/03:15pm 17.1 12.6 1.9 36 6.9 W 15 22 8 12 1016.4 - 0.0
29/03:00pm 17.3 12.8 2.4 37 6.8 WSW 15 22 8 12 1016.3 - 0.0
29/02:45pm 17.3 13.7 2.8 38 6.7 W 11 19 6 10 1016.2 - 0.0
29/02:30pm 17.1 13.1 2.7 38 6.6 W 13 22 7 12 1016.2 - 0.0
29/02:15pm 17.1 13.6 3.3 39 6.4 W 11 20 6 11 1016.1 - 0.0
29/02:00pm 16.9 13.4 3.3 40 6.3 W 11 22 6 12 1016.1 - 0.0
29/01:45pm 16.8 12.8 3.0 39 6.4 W 13 22 7 12 1016.1 - 0.0
29/01:30pm 16.8 12.9 3.5 41 6.2 W 13 26 7 14 1015.9 - 0.0
29/01:15pm 16.3 12.8 3.3 42 6.0 WSW 11 20 6 11 1016.0 - 0.0
29/01:00pm 16.3 12.8 3.5 42 5.9 W 11 20 6 11 1016.1 - 0.0
29/12:45pm 16.1 12.6 3.5 43 5.8 WSW 11 20 6 11 1016.2 - 0.0
29/12:30pm 15.8 12.0 3.7 44 5.6 W 13 22 7 12 1016.3 - 0.0
29/12:15pm 15.6 11.1 4.0 46 5.4 W 17 24 9 13 1016.4 - 0.0
29/12:00pm 15.3 10.4 4.3 48 5.1 W 19 24 10 13 1016.4 - 0.0
29/11:45am 15.0 10.2 4.5 49 4.9 W 19 26 10 14 1016.5 - 0.0
29/11:30am 14.7 9.9 4.5 50 4.8 WSW 19 28 10 15 1016.8 - 0.0
29/11:15am 14.4 9.4 4.6 51 4.6 WSW 20 30 11 16 1016.9 - 0.0
29/11:00am 14.0 9.0 4.6 53 4.4 WSW 20 28 11 15 1017.1 - 0.0
29/10:45am 13.8 8.5 5.1 55 4.1 WSW 22 33 12 18 1017.3 - 0.0
29/10:30am 13.2 7.9 5.1 58 3.8 WSW 22 33 12 18 1017.3 - 0.0
29/10:15am 12.9 6.8 5.0 58 3.7 WSW 26 37 14 20 1017.2 - 0.0
29/10:00am 12.4 5.9 4.9 60 3.5 WSW 28 41 15 22 1017.2 - 0.0
29/09:45am 12.0 5.5 4.9 62 3.3 WSW 28 39 15 21 1017.2 - 0.0
29/09:30am 11.7 6.4 5.0 63 3.1 WSW 22 35 12 19 1017.0 - 0.0
29/09:15am 11.5 6.6 5.0 64 3.0 WSW 20 30 11 16 1016.9 - 0.0
29/09:00am 11.1 5.8 4.8 65 2.9 WSW 22 33 12 18 1016.7 - 5.4
29/08:45am 10.8 5.4 4.7 66 2.8 WSW 22 32 12 17 1016.6 - 5.4
29/08:30am 10.4 5.6 4.7 68 2.6 WSW 19 32 10 17 1016.5 - 5.4
29/08:15am 9.9 5.1 4.6 69 2.4 WSW 19 28 10 15 1016.4 - 5.4
29/08:00am 9.4 3.6 4.5 71 2.2 WSW 24 30 13 16 1016.3 - 5.4
29/07:45am 8.8 3.4 4.3 73 2.0 WSW 22 30 12 16 1016.1 - 5.4
29/07:30am 8.3 2.4 4.0 74 1.9 WSW 24 30 13 16 1015.9 - 5.4
29/07:15am 8.2 2.7 3.9 74 1.9 WSW 22 28 12 15 1015.8 - 5.4
29/07:00am 8.0 1.7 3.9 75 1.8 WSW 26 32 14 17 1015.5 - 5.4
29/06:45am 7.9 1.6 3.7 75 1.8 WSW 26 32 14 17 1015.4 - 5.4
29/06:30am 8.0 2.1 3.7 74 1.9 WSW 24 30 13 16 1015.3 - 5.4
29/06:15am 8.1 2.2 3.7 74 1.9 WSW 24 30 13 16 1015.3 - 5.4
29/06:00am 8.1 2.5 3.7 74 1.9 WSW 22 28 12 15 1015.2 - 5.4
29/05:45am 8.1 2.6 3.8 74 1.9 WSW 22 28 12 15 1014.9 - 5.4
29/05:30am 8.0 2.8 3.7 74 1.9 WSW 20 24 11 13 1014.7 - 5.4
29/05:15am 7.8 2.6 3.7 75 1.8 WSW 20 24 11 13 1014.5 - 5.4
29/05:00am 7.7 2.5 3.6 75 1.8 WSW 20 26 11 14 1014.2 - 5.4
29/04:45am 7.6 1.7 3.7 76 1.7 WSW 24 28 13 15 1014.0 - 5.4
29/04:30am 7.6 1.6 3.4 75 1.8 WSW 24 28 13 15 1013.8 - 5.4
29/04:15am 7.8 2.2 3.5 74 1.9 WSW 22 24 12 13 1013.8 - 5.4
29/04:00am 8.2 3.0 3.7 73 2.0 W 20 26 11 14 1013.8 - 5.4
29/03:45am 8.5 3.0 3.9 73 2.0 W 22 26 12 14 1013.7 - 5.4
29/03:30am 8.5 2.2 3.8 72 2.1 W 26 28 14 15 1013.6 - 5.4
29/03:15am 8.6 2.3 4.0 73 2.0 W 26 28 14 15 1013.6 - 5.4
29/03:00am 8.6 2.4 4.1 73 2.0 W 26 28 14 15 1013.5 - 5.4
29/02:45am 8.3 2.4 4.0 74 1.9 W 24 26 13 14 1013.4 - 5.4
29/02:30am 8.4 2.5 4.0 74 1.9 WSW 24 28 13 15 1013.3 - 5.4
29/02:15am 8.5 2.6 4.0 73 2.0 WSW 24 28 13 15 1013.3 - 5.4
29/02:00am 8.6 2.7 4.0 73 2.0 WSW 24 30 13 16 1013.3 - 5.4
29/01:45am 8.7 2.4 4.0 72 2.1 WSW 26 30 14 16 1013.2 - 5.4
29/01:30am 8.8 2.9 4.0 72 2.1 WSW 24 30 13 16 1013.2 - 5.4
29/01:15am 8.9 3.0 4.1 72 2.1 WSW 24 28 13 15 1013.2 - 5.4
29/01:00am 8.9 3.0 4.0 71 2.2 WSW 24 28 13 15 1013.0 - 5.4
29/12:45am 9.0 3.1 4.0 71 2.2 WSW 24 30 13 16 1012.9 - 5.4
29/12:30am 9.1 3.2 4.0 70 2.2 WSW 24 28 13 15 1012.9 - 5.4
29/12:15am 9.3 3.8 3.9 69 2.4 WSW 22 26 12 14 1012.9 - 5.4
29/12:00am 9.5 4.0 4.1 69 2.4 WSW 22 30 12 16 1012.7 - 5.4
 
Date/Time
EST
Temp
°C
App
Temp
°C
Dew
Point
Rel
Hum
%
Delta-T
°C
Wind Press
QNH
hPa
Press
MSL
hPa
Rain
since 9 am
mm
Dir
 
Spd
km/h
Gust
km/h
Spd
kts
Gust
kts
28/11:45pm 9.6 3.4 4.1 68 2.4 WSW 26 33 14 18 1012.6 - 5.4
28/11:30pm 9.6 3.4 4.2 69 2.4 WSW 26 33 14 18 1012.5 - 5.4
28/11:15pm 9.5 3.3 4.3 70 2.3 WSW 26 33 14 18 1012.4 - 5.4
28/11:00pm 9.4 2.8 4.4 71 2.2 WSW 28 33 15 18 1012.2 - 5.4
28/10:45pm 9.3 3.1 4.3 71 2.2 WSW 26 30 14 16 1012.2 - 5.4
28/10:30pm 9.7 4.3 4.6 70 2.3 W 22 26 12 14 1012.3 - 5.4
28/10:15pm 9.7 4.7 4.6 70 2.3 WSW 20 24 11 13 1012.2 - 5.4
28/10:00pm 9.9 4.2 4.7 70 2.3 WSW 24 28 13 15 1012.0 - 5.4
28/09:45pm 10.1 4.8 4.8 69 2.4 WSW 22 28 12 15 1011.7 - 5.4
28/09:30pm 10.3 5.4 5.0 69 2.4 WSW 20 28 11 15 1011.5 - 5.4
28/09:15pm 10.4 4.4 5.2 70 2.4 WSW 26 33 14 18 1011.3 - 5.4
28/09:00pm 10.3 3.9 5.4 71 2.3 WSW 28 33 15 18 1011.1 - 5.4
28/08:45pm 10.2 4.2 5.5 72 2.2 WSW 26 33 14 18 1011.1 - 5.4
28/08:30pm 10.0 4.4 5.6 74 2.0 WSW 24 30 13 16 1011.1 - 5.4
28/08:15pm 9.8 4.2 5.4 74 2.0 WSW 24 32 13 17 1011.1 - 5.4
28/08:00pm 9.9 5.0 5.2 72 2.1 WSW 20 26 11 14 1010.9 - 5.4
28/07:45pm 10.2 5.4 5.5 72 2.2 W 20 24 11 13 1010.6 - 5.4
28/07:30pm 10.1 4.9 5.4 72 2.2 WSW 22 24 12 13 1010.4 - 5.4
28/07:15pm 10.2 5.3 5.3 71 2.2 W 20 24 11 13 1010.3 - 5.4
28/07:00pm 10.4 5.8 5.5 71 2.3 WSW 19 22 10 12 1010.1 - 5.4
28/06:45pm 10.6 6.3 5.4 70 2.4 WSW 17 20 9 11 1009.9 - 5.4
28/06:30pm 10.9 6.1 5.7 70 2.4 WSW 20 28 11 15 1009.6 - 5.4
28/06:15pm 10.9 5.4 5.9 71 2.3 WSW 24 33 13 18 1009.3 - 5.4
28/06:00pm 11.0 6.4 5.8 70 2.4 WSW 19 26 10 14 1009.1 - 5.4
28/05:45pm 11.4 6.9 6.0 69 2.5 WSW 19 22 10 12 1008.9 - 5.4
28/05:30pm 11.6 7.1 6.0 68 2.6 WSW 19 28 10 15 1008.5 - 5.4
28/05:15pm 12.0 7.5 6.1 67 2.8 WSW 19 28 10 15 1008.1 - 5.4
28/05:00pm 12.2 7.7 6.0 66 2.9 WSW 19 26 10 14 1007.9 - 5.4
28/04:45pm 12.6 7.9 6.1 64 3.1 WSW 20 30 11 16 1007.5 - 5.4
28/04:30pm 13.0 8.0 6.5 64 3.1 WSW 22 30 12 16 1007.1 - 5.4
28/04:15pm 12.9 8.1 7.2 68 2.8 W 22 28 12 15 1006.8 - 5.4
28/04:00pm 12.9 9.3 8.4 74 2.3 WSW 17 24 9 13 1006.7 - 5.4
28/03:45pm 13.1 9.7 9.0 76 2.1 W 17 24 9 13 1006.5 - 5.4
28/03:30pm 13.3 10.0 9.6 78 1.9 W 17 28 9 15 1006.2 - 5.4
28/03:15pm 13.5 10.8 10.4 81 1.6 W 15 28 8 15 1006.1 - 5.4
28/03:00pm 13.2 11.5 11.3 88 1.0 W 11 17 6 9 1006.0 - 5.4
28/02:45pm 12.0 10.2 10.8 92 0.6 WNW 11 17 6 9 1005.8 - 5.4
28/02:30pm 11.2 9.9 10.1 93 0.6 WNW 7 13 4 7 1005.7 - 5.4
28/02:15pm 10.9 9.6 10.1 95 0.4 W 7 13 4 7 1005.7 - 5.4
28/02:00pm 10.4 9.0 9.7 95 0.4 W 7 11 4 6 1005.6 - 5.4
28/01:45pm 10.0 8.2 9.3 95 0.4 WNW 9 13 5 7 1005.6 - 5.4
28/01:30pm 9.9 8.0 9.2 95 0.3 WNW 9 15 5 8 1005.6 - 5.4
28/01:15pm 9.8 7.9 9.1 95 0.3 W 9 15 5 8 1005.6 - 5.2
28/01:00pm 9.7 7.8 9.1 96 0.3 W 9 13 5 7 1005.7 - 5.0
28/12:45pm 9.5 6.8 8.9 96 0.3 W 13 17 7 9 1005.8 - 4.9
28/12:30pm 9.2 6.8 8.7 97 0.2 W 11 17 6 9 1005.8 - 4.7
28/12:15pm 9.1 6.7 8.5 96 0.3 W 11 19 6 10 1006.0 - 4.7
28/12:00pm 8.9 6.4 8.3 96 0.3 W 11 17 6 9 1006.2 - 4.5
28/11:45am 8.9 6.4 8.1 95 0.4 W 11 17 6 9 1006.4 - 4.3
28/11:30am 8.9 4.8 8.0 94 0.4 W 19 24 10 13 1006.6 - 3.4
28/11:15am 9.0 4.7 7.9 93 0.5 WNW 20 24 11 13 1006.6 - 2.0
28/11:00am 9.3 6.0 7.9 91 0.7 WNW 15 19 8 10 1006.7 - 1.1
28/10:45am 9.5 6.5 7.9 90 0.8 NW 13 19 7 10 1006.7 - 0.5
28/10:30am 9.6 6.2 7.8 88 0.9 NW 15 20 8 11 1006.8 - 0.4
28/10:15am 9.6 5.8 7.7 88 0.9 NW 17 24 9 13 1006.9 - 0.4
28/10:00am 9.0 5.0 6.7 85 1.1 WNW 17 24 9 13 1007.0 - 0.2
28/09:45am 9.2 5.5 6.1 81 1.4 WNW 15 22 8 12 1007.2 - 0.2
28/09:30am 9.8 6.4 6.1 78 1.7 NW 13 22 7 12 1007.1 - 0.0
28/09:15am 9.7 7.0 5.8 77 1.8 WNW 9 19 5 10 1007.1 - 0.0
28/09:00am 9.9 7.2 5.4 73 2.1 WNW 9 15 5 8 1007.1 - 0.0
28/08:45am 10.0 6.5 5.4 73 2.1 NW 13 17 7 9 1007.0 - 0.0
28/08:30am 9.6 5.6 5.0 73 2.1 NW 15 22 8 12 1007.0 - 0.0
28/08:15am 9.5 5.5 4.7 72 2.2 NW 15 22 8 12 1006.8 - 0.0
28/08:00am 9.7 6.4 4.8 71 2.2 WNW 11 20 6 11 1006.9 - 0.0
28/07:45am 9.3 6.5 5.1 75 1.9 WNW 9 15 5 8 1006.9 - 0.0
28/07:30am 8.1 4.3 4.0 75 1.8 WNW 13 19 7 10 1006.9 - 0.0
28/07:15am 8.9 5.6 4.3 73 2.0 WNW 11 15 6 8 1006.8 - 0.0
28/07:00am 8.8 4.8 4.9 76 1.8 WNW 15 17 8 9 1006.8 - 0.0
28/06:45am 7.5 3.8 4.2 79 1.4 WNW 13 19 7 10 1006.8 - 0.0
28/06:30am 6.4 3.5 2.8 78 1.5 W 7 13 4 7 1006.7 - 0.0
28/06:15am 6.8 3.8 2.3 73 1.9 W 7 13 4 7 1006.7 - 0.0
28/06:00am 8.5 5.7 3.3 70 2.2 WNW 7 13 4 7 1006.5 - 0.0
28/05:45am 9.4 5.3 4.3 70 2.3 NW 15 19 8 10 1006.4 - 0.0
28/05:30am 9.0 4.5 4.4 73 2.0 NW 17 20 9 11 1006.5 - 0.0
28/05:15am 8.3 4.9 3.8 73 2.0 NW 11 17 6 9 1006.6 - 0.0
28/05:00am 8.4 4.9 3.5 71 2.1 WNW 11 15 6 8 1006.5 - 0.0
28/04:45am 9.0 4.8 3.7 69 2.3 WNW 15 19 8 10 1006.6 - 0.0
28/04:30am 9.9 5.1 4.5 69 2.4 WNW 19 22 10 12 1006.6 - 0.0
28/04:15am 10.4 5.2 5.3 70 2.3 WNW 22 24 12 13 1006.6 - 0.0
28/04:00am 8.7 3.8 4.3 74 1.9 WNW 19 22 10 12 1006.6 - 0.0
28/03:45am 8.0 3.7 3.3 72 2.0 NW 15 17 8 9 1006.6 - 0.0
28/03:30am 8.4 4.1 3.1 69 2.3 WNW 15 19 8 10 1006.5 - 0.0
28/03:15am 9.6 5.4 3.8 67 2.6 WNW 15 19 8 10 1006.5 - 0.0
28/03:00am 9.9 5.7 4.0 67 2.6 W 15 19 8 10 1006.6 - 0.0
28/02:45am 10.2 5.7 4.3 67 2.6 W 17 22 9 12 1006.9 - 0.0
28/02:30am 10.2 4.7 3.9 65 2.8 W 22 24 12 13 1007.0 - 0.0
28/02:15am 10.5 5.0 3.9 63 2.9 W 22 28 12 15 1007.1 - 0.0
28/02:00am 10.6 4.3 3.9 63 3.0 W 26 30 14 16 1007.1 - 0.0
28/01:45am 10.6 3.9 3.9 63 3.0 W 28 33 15 18 1007.1 - 0.0
28/01:30am 10.4 4.1 4.0 64 2.9 W 26 32 14 17 1007.2 - 0.0
28/01:15am 10.3 4.7 3.7 63 2.9 W 22 30 12 16 1007.2 - 0.0
28/01:00am 10.3 4.7 3.5 62 3.0 W 22 28 12 15 1007.3 - 0.0
28/12:45am 10.4 4.4 3.4 62 3.1 W 24 30 13 16 1007.3 - 0.0
28/12:30am 10.5 4.9 3.2 60 3.2 W 22 30 12 16 1007.4 - 0.0
28/12:15am 10.7 5.1 3.2 60 3.3 W 22 28 12 15 1007.4 - 0.0
28/12:00am 10.8 5.2 3.2 59 3.3 W 22 33 12 18 1007.4 - 0.0
 
Date/Time
EST
Temp
°C
App
Temp
°C
Dew
Point
Rel
Hum
%
Delta-T
°C
Wind Press
QNH
hPa
Press
MSL
hPa
Rain
since 9 am
mm
Dir
 
Spd
km/h
Gust
km/h
Spd
kts
Gust
kts
27/11:45pm 10.9 4.9 3.1 58 3.4 W 24 33 13 18 1007.4 - 0.0
27/11:30pm 11.2 4.8 3.0 57 3.6 W 26 33 14 18 1007.4 - 0.0
27/11:15pm 11.2 5.1 3.0 57 3.6 W 24 33 13 18 1007.5 - 0.0
27/11:00pm 11.3 5.2 2.9 56 3.7 W 24 33 13 18 1007.4 - 0.0
27/10:45pm 11.3 5.6 2.8 56 3.7 W 22 33 12 18 1007.3 - 0.0
27/10:30pm 11.4 6.1 2.8 55 3.8 W 20 33 11 18 1007.3 - 0.0
27/10:15pm 11.6 5.5 2.7 54 3.9 W 24 33 13 18 1007.1 - 0.0
27/10:00pm 11.6 5.1 2.6 54 3.9 W 26 37 14 20 1007.1 - 0.0
27/09:45pm 11.6 6.3 2.8 54 3.9 W 20 30 11 16 1007.2 - 0.0
27/09:30pm 11.4 6.0 2.4 54 3.9 W 20 28 11 15 1007.1 - 0.0
27/09:15pm 11.6 5.8 2.2 52 4.1 W 22 30 12 16 1006.8 - 0.0
27/09:00pm 11.9 5.7 2.1 51 4.2 W 24 37 13 20 1006.7 - 0.0
27/08:45pm 12.1 5.9 2.0 50 4.4 W 24 33 13 18 1006.5 - 0.0
27/08:30pm 12.2 6.0 2.0 49 4.4 W 24 35 13 19 1006.3 - 0.0
27/08:15pm 12.4 5.0 2.0 49 4.5 W 30 41 16 22 1006.1 - 0.0
27/08:00pm 12.5 5.1 1.9 48 4.6 W 30 50 16 27 1006.0 - 0.0
27/07:45pm 12.5 4.7 1.9 48 4.6 W 32 48 17 26 1005.8 - 0.0
27/07:30pm 12.6 4.6 1.8 47 4.7 W 33 50 18 27 1005.5 - 0.0
27/07:15pm 12.7 4.7 1.8 47 4.7 W 33 50 18 27 1005.1 - 0.0
27/07:00pm 12.8 4.8 1.9 47 4.7 W 33 59 18 32 1004.9 - 0.0
27/06:45pm 12.9 5.5 1.8 47 4.8 W 30 48 16 26 1004.8 - 0.0
27/06:30pm 13.0 5.6 1.8 46 4.9 W 30 41 16 22 1004.6 - 0.0
27/06:15pm 13.2 5.4 1.8 46 5.0 W 32 48 17 26 1004.1 - 0.0
27/06:00pm 13.4 3.9 1.8 45 5.1 W 41 59 22 32 1003.6 - 0.0
27/05:45pm 13.5 4.8 1.8 45 5.1 W 37 56 20 30 1003.4 - 0.0
27/05:30pm 13.6 5.6 1.9 45 5.1 W 33 48 18 26 1003.1 - 0.0
27/05:15pm 13.8 5.5 2.0 44 5.2 W 35 52 19 28 1002.8 - 0.0
27/05:00pm 14.1 5.7 1.8 43 5.4 W 35 59 19 32 1002.5 - 0.0
27/04:45pm 14.4 4.9 1.8 42 5.5 W 41 67 22 36 1002.4 - 0.0
27/04:30pm 14.7 5.2 1.9 42 5.7 W 41 61 22 33 1002.2 - 0.0
27/04:15pm 14.9 6.6 2.4 43 5.6 W 35 54 19 29 1002.1 - 0.0
27/04:00pm 15.2 7.0 2.6 42 5.7 W 35 59 19 32 1002.0 - 0.0
27/03:45pm 15.3 7.1 2.6 42 5.7 W 35 54 19 29 1001.9 - 0.0
27/03:30pm 15.5 7.7 2.8 42 5.8 W 33 56 18 30 1001.8 - 0.0
27/03:15pm 15.7 9.2 2.8 42 5.9 W 26 41 14 22 1001.9 - 0.0
27/03:00pm 15.7 8.1 2.7 41 5.9 W 32 56 17 30 1001.7 - 0.0
27/02:45pm 15.8 8.1 2.5 40 6.0 W 32 50 17 27 1001.5 - 0.0
27/02:30pm 15.8 7.2 2.5 40 6.0 W 37 57 20 31 1001.4 - 0.0
27/02:15pm 15.8 6.3 2.0 39 6.2 W 41 57 22 31 1001.4 - 0.0
27/02:00pm 16.0 8.3 2.4 40 6.1 W 32 50 17 27 1001.3 - 0.0
27/01:45pm 16.0 7.7 2.2 39 6.2 W 35 56 19 30 1001.3 - 0.0
27/01:30pm 16.1 8.2 2.3 39 6.2 W 33 54 18 29 1001.4 - 0.0
27/01:15pm 15.9 8.0 2.2 39 6.2 W 33 52 18 28 1001.4 - 0.0
27/01:00pm 16.1 8.2 2.2 39 6.3 W 33 54 18 29 1001.5 - 0.0
27/12:45pm 16.2 8.9 2.4 39 6.2 W 30 44 16 24 1001.7 - 0.0
27/12:30pm 15.9 7.6 2.0 39 6.2 W 35 54 19 29 1001.8 - 0.0
27/12:15pm 16.1 8.8 2.3 39 6.2 W 30 44 16 24 1001.9 - 0.0
27/12:00pm 15.9 8.0 2.0 39 6.2 W 33 54 18 29 1002.0 - 0.0
27/11:45am 15.7 7.0 1.8 39 6.2 W 37 59 20 32 1002.1 - 0.0
27/11:30am 15.6 6.9 1.8 39 6.1 W 37 56 20 30 1002.3 - 0.0
27/11:15am 15.4 7.0 1.7 39 6.1 W 35 52 19 28 1002.4 - 0.0
27/11:00am 15.4 6.7 1.9 40 6.0 W 37 56 20 30 1002.6 - 0.0
27/10:45am 15.3 7.9 2.1 41 5.9 W 30 46 16 25 1002.8 - 0.0
27/10:30am 15.2 7.9 2.3 42 5.8 W 30 44 16 24 1003.0 - 0.0
27/10:15am 14.8 7.1 2.1 42 5.6 W 32 57 17 31 1003.1 - 0.0
27/10:00am 14.7 7.8 2.4 43 5.5 W 28 43 15 23 1003.2 - 0.0
27/09:45am 14.4 7.8 2.3 44 5.4 W 26 43 14 23 1003.2 - 0.0
27/09:30am 14.2 8.5 2.7 46 5.1 W 22 30 12 16 1003.2 - 0.0
27/09:15am 13.6 7.9 2.7 47 4.9 W 22 30 12 16 1003.2 - 0.0
27/09:00am 13.3 8.1 2.7 48 4.7 W 19 30 10 16 1003.2 - 0.0
27/08:45am 12.9 8.5 2.7 50 4.5 W 15 22 8 12 1003.2 - 0.0
27/08:30am 12.5 8.2 3.0 52 4.2 W 15 26 8 14 1003.2 - 0.0
27/08:15am 12.1 7.8 3.1 54 4.0 W 15 24 8 13 1003.1 - 0.0
27/08:00am 11.7 6.1 3.2 56 3.8 W 22 33 12 18 1003.0 - 0.0
27/07:45am 11.4 5.4 3.3 57 3.6 W 24 33 13 18 1002.9 - 0.0
27/07:30am 11.2 5.2 3.6 59 3.4 W 24 30 13 16 1002.8 - 0.0
27/07:15am 11.1 4.8 3.6 60 3.3 W 26 33 14 18 1002.8 - 0.0
27/07:00am 10.9 5.3 3.3 59 3.4 W 22 33 12 18 1002.8 - 0.0
27/06:45am 11.0 5.7 3.2 58 3.4 W 20 32 11 17 1002.8 - 0.0
27/06:30am 11.2 6.1 3.3 58 3.5 W 19 26 10 14 1002.8 - 0.0
27/06:15am 11.6 6.0 3.4 57 3.6 W 22 32 12 17 1002.7 - 0.0
27/06:00am 11.6 6.6 3.6 58 3.6 WSW 19 33 10 18 1002.6 - 0.0
27/05:45am 11.5 7.3 3.8 59 3.5 SW 15 28 8 15 1002.3 - 0.0
27/05:30am 11.8 7.3 4.0 59 3.5 WSW 17 30 9 16 1002.0 - 0.0
27/05:15am 11.9 6.4 4.2 59 3.5 W 22 33 12 18 1001.8 - 0.0
27/05:00am 12.2 6.0 4.2 58 3.6 W 26 39 14 21 1001.6 - 0.0
27/04:45am 12.3 5.7 4.3 58 3.7 W 28 37 15 20 1001.6 - 0.0
27/04:30am 12.3 6.9 4.4 58 3.6 W 22 35 12 19 1001.8 - 0.0
27/04:15am 12.4 7.0 4.6 59 3.6 W 22 30 12 16 1001.7 - 0.0
27/04:00am 12.4 6.7 4.8 60 3.5 W 24 37 13 20 1001.6 - 0.0
27/03:45am 12.5 7.5 4.8 59 3.6 W 20 32 11 17 1001.6 - 0.0
27/03:30am 12.5 7.2 4.9 60 3.5 W 22 41 12 22 1001.6 - 0.0
27/03:15am 12.5 7.5 4.7 59 3.6 W 20 33 11 18 1001.6 - 0.0
27/03:00am 12.5 7.1 4.6 58 3.6 W 22 41 12 22 1001.5 - 0.0
27/02:45am 12.6 7.2 4.6 58 3.7 W 22 32 12 17 1001.7 - 0.0
27/02:30am 12.7 7.3 4.4 57 3.8 W 22 37 12 20 1002.0 - 0.0
27/02:15am 12.7 7.2 4.2 56 3.9 W 22 35 12 19 1002.1 - 0.0
27/02:00am 13.0 7.9 4.0 54 4.1 W 20 37 11 20 1001.9 - 0.0
27/01:45am 13.6 6.7 4.4 53 4.3 W 30 44 16 24 1001.5 - 0.0
27/01:30am 13.6 6.8 5.1 56 4.0 W 30 50 16 27 1001.2 - 0.0
27/01:15am 13.6 7.2 5.3 57 3.9 W 28 41 15 22 1001.3 - 0.0
27/01:00am 13.9 7.2 5.4 56 4.0 W 30 43 16 23 1001.4 - 0.0
27/12:45am 14.1 7.0 5.5 56 4.1 W 32 44 17 24 1001.6 - 0.0
27/12:30am 14.2 7.5 5.8 57 4.0 W 30 43 16 23 1001.7 - 0.0
27/12:15am 14.1 8.2 5.9 57 3.9 W 26 41 14 22 1001.8 - 0.0
27/12:00am 14.3 10.3 6.6 60 3.7 W 17 41 9 22 1002.0 - 0.0
 
Date/Time
EST
Temp
°C
App
Temp
°C
Dew
Point
Rel
Hum
%
Delta-T
°C
Wind Press
QNH
hPa
Press
MSL
hPa
Rain
since 9 am
mm
Dir
 
Spd
km/h
Gust
km/h
Spd
kts
Gust
kts
26/11:45pm 14.5 9.9 6.7 59 3.8 W 20 28 11 15 1002.1 - 0.0
26/11:30pm 14.6 10.1 7.1 60 3.7 W 20 33 11 18 1002.0 - 0.0
26/11:15pm 14.6 10.7 7.3 61 3.6 W 17 28 9 15 1002.1 - 0.0

Other Formats:

Comma delimited format used in spreadsheet applications
http://www.bom.gov.au/fwo/IDN60801/IDN60801.95757.axf

JavaScript Object Notation format (JSON) in row-major order
http://www.bom.gov.au/fwo/IDN60801/IDN60801.95757.json